Passaic, Missouri
Current Conditions -  °F | °C
As of 5:15 PM on Friday 19 Dec 2014 (Local Time) from KGLY Reporting Station
Overcast Overcast  
Wind Chill: 37°   Ceiling: 800
Heat Index: 37°   Visibility: 9mi
Dew Point: 36°   Wind: 3mph
Humidity: 93%   Direction: 110°ESE
Pressure: 30.22"   Gusts: NA
Location:  38.32°N, 94.35°W
Report Text: KGLY 192315Z AUTO 11003KT 9SM OVC008 03/02 A3022 RMK AO2
Loading
Personal Weather Stations






























Interactive Weather Map New forecast layout! Learn more

10-Day Weather Forecast

Advertisements
Track Severe Weather on mobile